Time;durP1;ratioP1;P1;durP2;ratioP2;P2;SDS_P1;SDS_P2;PMS_P1;PMS_P2;Temp;Humidity;BMP_temperature;BMP_pressure;BME280_temperature;BME280_humidity;BME280_pressure;Samples;Min_cycle;Max_cycle;Signal;HPM_P1;HPM_P2
2023/09/15 00:01:30;;;;;;;2.80;2.40;;;22.30;59.50;;;;;;5017270;28;20204;-88
2023/09/15 00:03:58;;;;;;;2.45;2.25;;;22.40;59.60;;;;;;5017062;28;20208;-88
2023/09/15 00:06:26;;;;;;;2.70;2.50;;;22.40;59.60;;;;;;5018240;28;20551;-88
2023/09/15 00:08:53;;;;;;;2.60;2.38;;;22.40;59.70;;;;;;5017216;28;20200;-88
2023/09/15 00:11:20;;;;;;;3.35;2.40;;;22.40;59.70;;;;;;5017849;28;20199;-88
2023/09/15 00:13:50;;;;;;;2.90;2.38;;;22.30;59.60;;;;;;5017027;28;20204;-88
2023/09/15 00:16:54;;;;;;;2.78;2.50;;;22.40;59.70;;;;;;5017423;28;20196;-88
2023/09/15 00:19:22;;;;;;;2.70;2.50;;;22.30;59.70;;;;;;5017170;28;20219;-88
2023/09/15 00:21:49;;;;;;;2.95;2.47;;;22.30;59.70;;;;;;5017362;28;20211;-88
2023/09/15 00:24:16;;;;;;;3.10;2.78;;;22.30;59.70;;;;;;5017225;28;20211;-88
2023/09/15 00:26:43;;;;;;;2.97;2.78;;;22.30;59.70;;;;;;5016842;28;20200;-88
2023/09/15 00:29:12;;;;;;;2.50;2.30;;;22.30;59.70;;;;;;5017779;28;20731;-89
2023/09/15 00:31:39;;;;;;;3.05;2.17;;;22.30;59.70;;;;;;5017181;28;20247;-88
2023/09/15 00:34:06;;;;;;;2.60;2.40;;;22.30;59.80;;;;;;5001185;28;20188;-89
2023/09/15 00:36:33;;;;;;;2.60;2.40;;;22.30;59.80;;;;;;5016606;28;20215;-88
2023/09/15 00:39:01;;;;;;;3.08;2.78;;;22.30;59.80;;;;;;5016817;28;20266;-89
2023/09/15 00:41:28;;;;;;;2.90;2.60;;;22.20;59.70;;;;;;5016972;28;20231;-88
2023/09/15 00:43:54;;;;;;;3.20;2.90;;;22.30;59.90;;;;;;5016405;28;20200;-88
2023/09/15 00:46:23;;;;;;;3.05;2.70;;;22.30;59.90;;;;;;5017044;28;20247;-88
2023/09/15 00:48:51;;;;;;;3.10;2.80;;;22.20;59.80;;;;;;5016564;28;20200;-88
2023/09/15 00:51:21;;;;;;;2.65;2.45;;;22.30;59.90;;;;;;5016720;28;20291;-88
2023/09/15 00:53:48;;;;;;;3.10;2.80;;;22.30;59.90;;;;;;5017483;28;20200;-88
2023/09/15 00:56:16;;;;;;;2.50;2.30;;;22.20;59.80;;;;;;5016973;28;20204;-88
2023/09/15 00:58:43;;;;;;;3.17;2.42;;;22.20;59.80;;;;;;5016910;28;20222;-88
2023/09/15 01:01:10;;;;;;;2.80;2.60;;;22.20;59.90;;;;;;5017278;28;20658;-88
2023/09/15 01:03:40;;;;;;;3.85;2.55;;;22.20;59.80;;;;;;5017460;28;20203;-88
2023/09/15 01:06:07;;;;;;;2.75;2.30;;;22.20;59.90;;;;;;5017518;28;20196;-88
2023/09/15 01:08:35;;;;;;;2.72;2.53;;;22.20;59.90;;;;;;5023570;28;20250;-88
2023/09/15 01:11:04;;;;;;;3.15;2.30;;;22.20;59.90;;;;;;5006576;28;20245;-88
2023/09/15 01:13:33;;;;;;;2.80;2.60;;;22.20;60.00;;;;;;5021797;28;20638;-88
2023/09/15 01:16:06;;;;;;;2.70;2.50;;;22.10;59.90;;;;;;5018668;28;20192;-88
2023/09/15 01:18:37;;;;;;;2.50;2.30;;;22.20;60.00;;;;;;5016785;28;20244;-88
2023/09/15 01:21:32;;;;;;;2.78;2.50;;;22.20;60.10;;;;;;5016938;28;20230;-88
2023/09/15 01:24:31;;;;;;;2.65;2.45;;;22.10;60.00;;;;;;5017195;28;20188;-88
2023/09/15 01:27:13;;;;;;;2.58;2.33;;;22.10;60.10;;;;;;4957260;28;20202;-88
2023/09/15 01:29:46;;;;;;;2.60;2.40;;;22.10;60.10;;;;;;5009332;28;20280;-89
2023/09/15 01:32:13;;;;;;;2.55;2.35;;;22.00;60.10;;;;;;5014424;28;20666;-89
2023/09/15 01:34:45;;;;;;;2.90;2.60;;;22.10;60.20;;;;;;5016824;28;20195;-88
2023/09/15 01:37:12;;;;;;;2.42;2.22;;;22.10;60.30;;;;;;5016421;28;20595;-88
2023/09/15 01:39:39;;;;;;;2.75;2.42;;;22.10;60.30;;;;;;5016343;28;20211;-88
2023/09/15 01:42:07;;;;;;;2.75;2.55;;;22.10;60.40;;;;;;5015998;28;20206;-88
2023/09/15 01:44:34;;;;;;;2.55;2.35;;;22.10;60.40;;;;;;5016058;28;20210;-89
2023/09/15 01:47:03;;;;;;;2.67;2.47;;;22.00;60.30;;;;;;5016308;28;20227;-88
2023/09/15 01:49:30;;;;;;;2.55;2.35;;;22.00;60.30;;;;;;5019244;28;20414;-88
2023/09/15 01:51:57;;;;;;;2.53;2.33;;;22.10;60.40;;;;;;5019818;28;20279;-89
2023/09/15 01:54:24;;;;;;;2.60;2.40;;;22.00;60.40;;;;;;5020916;28;20223;-88
2023/09/15 01:56:51;;;;;;;2.53;2.33;;;22.10;60.50;;;;;;5019859;28;20288;-88
2023/09/15 01:59:17;;;;;;;2.65;2.45;;;22.00;60.50;;;;;;5020060;28;20227;-89
2023/09/15 02:01:45;;;;;;;2.80;2.60;;;22.00;60.50;;;;;;5019741;28;20199;-88
2023/09/15 02:04:13;;;;;;;2.72;2.53;;;22.00;60.50;;;;;;5020537;28;20569;-88
2023/09/15 02:06:40;;;;;;;2.70;2.50;;;22.00;60.50;;;;;;5019961;28;20203;-88
2023/09/15 02:09:07;;;;;;;2.63;2.42;;;22.00;60.50;;;;;;5019868;28;20615;-88
2023/09/15 02:11:34;;;;;;;2.53;2.33;;;22.00;60.50;;;;;;5019871;28;20197;-88
2023/09/15 02:14:01;;;;;;;2.83;2.60;;;22.00;60.60;;;;;;5002798;28;20207;-88
2023/09/15 02:16:28;;;;;;;2.55;2.35;;;21.90;60.50;;;;;;5019716;28;20192;-88
2023/09/15 02:18:55;;;;;;;2.80;2.60;;;22.00;60.60;;;;;;5019374;28;20216;-88
2023/09/15 02:21:23;;;;;;;2.80;2.60;;;22.00;60.60;;;;;;5019624;28;20199;-88
2023/09/15 02:23:50;;;;;;;2.65;2.45;;;22.00;60.60;;;;;;5020292;28;20571;-88
2023/09/15 02:26:17;;;;;;;2.50;2.30;;;21.90;60.50;;;;;;5020206;28;20246;-88
2023/09/15 02:28:44;;;;;;;2.50;2.30;;;21.90;60.50;;;;;;5019265;28;20192;-88
2023/09/15 02:31:11;;;;;;;2.85;2.65;;;21.90;60.50;;;;;;5019038;28;20204;-88
2023/09/15 02:33:38;;;;;;;2.40;2.20;;;21.90;60.50;;;;;;5019212;28;20192;-88
2023/09/15 02:36:06;;;;;;;2.60;2.40;;;21.90;60.50;;;;;;5018886;28;20204;-88
2023/09/15 02:38:34;;;;;;;2.50;2.30;;;21.90;60.50;;;;;;5019901;28;20227;-88
2023/09/15 02:41:01;;;;;;;2.47;2.28;;;21.90;60.50;;;;;;5019510;28;20220;-88
2023/09/15 02:43:28;;;;;;;2.67;2.47;;;21.90;60.60;;;;;;5018987;28;20196;-88
2023/09/15 02:45:55;;;;;;;2.33;2.17;;;21.90;60.60;;;;;;5019236;28;20677;-88
2023/09/15 02:48:24;;;;;;;2.80;2.60;;;21.90;60.50;;;;;;5019542;28;20674;-88
2023/09/15 02:50:51;;;;;;;2.50;2.30;;;21.90;60.50;;;;;;5019609;28;20222;-88
2023/09/15 02:53:19;;;;;;;2.70;2.50;;;21.90;60.50;;;;;;5019305;28;20276;-88
2023/09/15 02:55:57;;;;;;;2.50;2.30;;;21.80;60.40;;;;;;5019118;28;20196;-88
2023/09/15 02:58:25;;;;;;;2.60;2.40;;;21.90;60.60;;;;;;5019925;28;20207;-88
2023/09/15 03:00:53;;;;;;;2.50;2.30;;;21.90;60.60;;;;;;5001576;28;20212;-88
2023/09/15 03:03:24;;;;;;;2.72;2.53;;;21.90;60.50;;;;;;5018875;28;20747;-88
2023/09/15 03:05:52;;;;;;;2.38;2.17;;;21.90;60.50;;;;;;5004162;28;20196;-88
2023/09/15 03:08:19;;;;;;;2.72;2.53;;;21.90;60.50;;;;;;5018000;28;20195;-88
2023/09/15 03:10:47;;;;;;;2.50;2.30;;;21.90;60.40;;;;;;5019118;28;20224;-88
2023/09/15 03:13:16;;;;;;;2.92;2.50;;;21.90;60.00;;;;;;5019068;28;20200;-88
2023/09/15 03:15:44;;;;;;;2.60;2.40;;;21.90;59.90;;;;;;5019920;28;20678;-88
2023/09/15 03:18:11;;;;;;;2.72;2.42;;;21.90;59.90;;;;;;5025086;28;20224;-88
2023/09/15 03:20:38;;;;;;;2.65;2.45;;;21.90;60.00;;;;;;5034607;28;20200;-88
2023/09/15 03:23:05;;;;;;;2.75;2.55;;;22.00;59.90;;;;;;5018962;28;20253;-88
2023/09/15 03:25:33;;;;;;;2.70;2.50;;;21.90;59.80;;;;;;5019025;28;20200;-87
2023/09/15 03:28:02;;;;;;;2.50;2.30;;;22.00;59.70;;;;;;5019533;28;20217;-88
2023/09/15 03:30:30;;;;;;;3.20;2.90;;;22.00;59.50;;;;;;5018330;28;20302;-88
2023/09/15 03:33:00;;;;;;;2.75;2.55;;;22.10;59.50;;;;;;5018679;28;20593;-88
2023/09/15 03:35:29;;;;;;;2.58;2.38;;;22.10;59.30;;;;;;5018144;28;20282;-88
2023/09/15 03:37:57;;;;;;;2.88;2.60;;;22.10;59.20;;;;;;5018066;28;20246;-88
2023/09/15 03:40:24;;;;;;;2.80;2.55;;;22.10;59.10;;;;;;5018573;28;20227;-88
2023/09/15 03:42:52;;;;;;;2.55;2.35;;;22.20;59.10;;;;;;5017888;28;20196;-88
2023/09/15 03:45:20;;;;;;;2.88;2.33;;;22.10;59.10;;;;;;5018111;28;20223;-88
2023/09/15 03:47:50;;;;;;;3.67;2.65;;;22.10;59.10;;;;;;5017752;28;20206;-88
2023/09/15 03:50:21;;;;;;;2.40;2.20;;;22.20;59.10;;;;;;5017771;28;20219;-88
2023/09/15 03:52:48;;;;;;;2.47;2.28;;;22.20;59.10;;;;;;5017644;28;20666;-88
2023/09/15 03:55:17;;;;;;;2.35;2.15;;;22.20;59.00;;;;;;5017476;28;20184;-88
2023/09/15 03:57:45;;;;;;;2.60;2.40;;;22.20;58.90;;;;;;5017474;28;20192;-88
2023/09/15 04:00:17;;;;;;;2.95;2.47;;;22.20;58.80;;;;;;5017143;28;20302;-88
2023/09/15 04:02:44;;;;;;;2.42;2.22;;;22.20;58.70;;;;;;5017534;28;20203;-88
2023/09/15 04:05:13;;;;;;;2.53;2.33;;;22.30;58.70;;;;;;5017655;28;20211;-88
2023/09/15 04:07:40;;;;;;;2.28;2.08;;;22.30;58.80;;;;;;5017088;28;20201;-88
2023/09/15 04:10:08;;;;;;;2.60;2.40;;;22.30;58.70;;;;;;5017524;28;20212;-88
2023/09/15 04:12:36;;;;;;;3.35;2.45;;;22.20;58.60;;;;;;5017987;28;20200;-88
2023/09/15 04:15:05;;;;;;;2.70;2.50;;;22.30;58.60;;;;;;5001122;28;20200;-88
2023/09/15 04:17:32;;;;;;;2.90;2.42;;;22.20;58.60;;;;;;5017381;28;20270;-88
2023/09/15 04:20:00;;;;;;;2.33;2.15;;;22.30;58.60;;;;;;5017176;28;20234;-88
2023/09/15 04:22:29;;;;;;;2.30;2.10;;;22.20;58.60;;;;;;5016886;28;20224;-88
2023/09/15 04:24:55;;;;;;;2.63;2.42;;;22.20;58.60;;;;;;5001084;28;20207;-87
2023/09/15 04:27:23;;;;;;;3.10;2.58;;;22.20;59.20;;;;;;5017688;28;20215;-88
2023/09/15 04:29:54;;;;;;;2.60;2.40;;;22.20;58.60;;;;;;5017386;28;20255;-88
2023/09/15 04:32:23;;;;;;;3.08;2.78;;;22.20;58.60;;;;;;5016764;28;20196;-86
2023/09/15 04:34:50;;;;;;;3.40;2.63;;;22.20;58.70;;;;;;5016767;28;20199;-84
2023/09/15 04:37:17;;;;;;;3.08;2.70;;;22.20;58.70;;;;;;5016748;28;20200;-82
2023/09/15 04:39:47;;;;;;;3.45;2.80;;;22.10;58.80;;;;;;5000220;28;20230;-82
2023/09/15 04:42:14;;;;;;;3.10;2.80;;;22.10;58.20;;;;;;5016741;28;20200;-83
2023/09/15 04:44:41;;;;;;;3.88;2.92;;;22.10;58.20;;;;;;5000215;28;20195;-82
2023/09/15 04:47:09;;;;;;;3.55;2.75;;;22.10;56.20;;;;;;5016765;28;20199;-82
2023/09/15 04:49:36;;;;;;;4.82;3.20;;;22.10;55.10;;;;;;5016292;28;20208;-83
2023/09/15 04:52:04;;;;;;;3.83;3.40;;;22.00;54.10;;;;;;5016717;28;20690;-83
2023/09/15 04:54:31;;;;;;;3.45;2.80;;;22.00;53.70;;;;;;5016507;28;20204;-83
2023/09/15 04:57:00;;;;;;;3.78;3.28;;;21.90;53.20;;;;;;5000232;28;20227;-83
2023/09/15 04:59:27;;;;;;;6.72;3.25;;;21.90;53.20;;;;;;5016415;28;20318;-83
2023/09/15 05:01:54;;;;;;;5.00;3.20;;;21.80;53.00;;;;;;5016721;28;20202;-83
2023/09/15 05:04:21;;;;;;;3.83;3.35;;;21.80;53.00;;;;;;5016830;28;20227;-83
2023/09/15 05:06:48;;;;;;;3.70;3.25;;;21.70;52.80;;;;;;5000573;28;20294;-83
2023/09/15 05:09:20;;;;;;;3.58;3.28;;;21.70;52.70;;;;;;5016864;28;20266;-83
2023/09/15 05:11:47;;;;;;;4.05;3.55;;;21.60;52.80;;;;;;5016337;28;20195;-82
2023/09/15 05:14:16;;;;;;;5.30;3.13;;;21.50;52.90;;;;;;5016360;28;20219;-82
2023/09/15 05:16:43;;;;;;;3.97;3.20;;;21.60;53.00;;;;;;5016919;28;20196;-83
2023/09/15 05:19:10;;;;;;;3.50;3.20;;;21.50;53.30;;;;;;5016522;28;20231;-83
2023/09/15 05:21:37;;;;;;;3.85;3.05;;;21.50;53.60;;;;;;5016538;28;20287;-83
2023/09/15 05:24:07;;;;;;;3.60;3.00;;;21.50;53.90;;;;;;5017139;28;20192;-83
2023/09/15 05:26:36;;;;;;;3.30;3.00;;;21.40;54.20;;;;;;5016732;28;20204;-83
2023/09/15 05:29:03;;;;;;;3.58;3.17;;;21.40;54.30;;;;;;5017003;28;20289;-83
2023/09/15 05:31:32;;;;;;;4.57;3.38;;;21.40;54.40;;;;;;5017279;28;20250;-83
2023/09/15 05:33:59;;;;;;;3.75;2.65;;;21.40;54.50;;;;;;5016661;28;20188;-83
2023/09/15 05:36:26;;;;;;;4.15;3.22;;;21.40;55.20;;;;;;5016390;28;20219;-83
2023/09/15 05:38:54;;;;;;;4.25;3.05;;;21.40;54.70;;;;;;5017029;28;20212;-83
2023/09/15 05:41:21;;;;;;;3.80;2.88;;;21.50;54.80;;;;;;5017285;28;20192;-87
2023/09/15 05:43:48;;;;;;;2.90;2.70;;;21.50;55.00;;;;;;5016626;28;20227;-83
2023/09/15 05:46:15;;;;;;;3.03;2.75;;;21.50;55.40;;;;;;5016844;28;20201;-82
2023/09/15 05:48:44;;;;;;;5.00;3.33;;;21.50;55.60;;;;;;5016140;28;20192;-82
2023/09/15 05:51:11;;;;;;;3.65;3.30;;;21.50;55.70;;;;;;5016992;28;20655;-82
2023/09/15 05:53:38;;;;;;;3.20;2.90;;;21.50;55.80;;;;;;5016137;28;20677;-82
2023/09/15 05:56:05;;;;;;;3.75;2.72;;;21.50;55.80;;;;;;5016350;28;20254;-82
2023/09/15 05:58:33;;;;;;;3.08;2.78;;;21.50;55.80;;;;;;5015916;28;20569;-82
2023/09/15 06:01:00;;;;;;;2.88;2.58;;;21.60;55.80;;;;;;5016059;28;20342;-82
2023/09/15 06:03:27;;;;;;;3.17;2.85;;;21.70;55.80;;;;;;5015882;28;20651;-82
2023/09/15 06:05:56;;;;;;;3.85;2.97;;;21.70;55.60;;;;;;5016070;28;20211;-82
2023/09/15 06:08:23;;;;;;;3.05;2.75;;;21.70;55.50;;;;;;5015577;28;20253;-82
2023/09/15 06:10:50;;;;;;;3.20;2.75;;;21.80;55.50;;;;;;5015752;28;20601;-82
2023/09/15 06:13:17;;;;;;;4.10;2.88;;;21.80;55.50;;;;;;5015900;28;20200;-82
2023/09/15 06:15:44;;;;;;;3.17;2.70;;;21.80;55.40;;;;;;5015418;28;20200;-82
2023/09/15 06:18:11;;;;;;;3.13;2.83;;;21.90;55.50;;;;;;5015418;28;20307;-83
2023/09/15 06:20:39;;;;;;;2.97;2.67;;;22.00;55.50;;;;;;5015343;28;20224;-83
2023/09/15 06:23:07;;;;;;;3.20;2.90;;;22.00;55.40;;;;;;5033154;28;20242;-83
2023/09/15 06:25:35;;;;;;;2.70;2.50;;;22.00;55.30;;;;;;5015496;28;20200;-83
2023/09/15 06:28:02;;;;;;;3.15;2.85;;;22.10;55.40;;;;;;5015374;28;20250;-83
2023/09/15 06:30:30;;;;;;;2.85;2.63;;;22.10;55.20;;;;;;5015694;28;20216;-83
2023/09/15 06:32:57;;;;;;;4.20;3.03;;;22.20;55.20;;;;;;5015337;28;20196;-83
2023/09/15 06:35:24;;;;;;;3.28;2.92;;;22.20;55.00;;;;;;5016485;28;20584;-83
2023/09/15 06:37:52;;;;;;;3.40;3.10;;;22.20;55.00;;;;;;5018894;28;20219;-83
2023/09/15 06:40:20;;;;;;;4.30;2.83;;;22.30;55.00;;;;;;5019403;28;20238;-83
2023/09/15 06:42:47;;;;;;;5.15;2.90;;;22.30;54.90;;;;;;5018596;28;20204;-83
2023/09/15 06:45:14;;;;;;;4.38;2.95;;;22.30;54.90;;;;;;5018692;28;20196;-83
2023/09/15 06:47:42;;;;;;;3.42;2.83;;;22.30;54.90;;;;;;5018424;28;20199;-83
2023/09/15 06:50:09;;;;;;;3.05;2.55;;;22.30;54.90;;;;;;5018414;28;20235;-83
2023/09/15 06:52:36;;;;;;;3.80;2.92;;;22.40;55.00;;;;;;5002446;28;20204;-83
2023/09/15 06:55:04;;;;;;;2.95;2.67;;;22.40;54.90;;;;;;5019159;28;20650;-83
2023/09/15 06:57:32;;;;;;;3.58;2.85;;;22.50;54.80;;;;;;5018594;28;20192;-83
2023/09/15 07:00:00;;;;;;;3.05;2.85;;;22.60;54.40;;;;;;5018134;28;20306;-83
2023/09/15 07:02:29;;;;;;;3.50;2.78;;;22.80;54.10;;;;;;5018479;28;20254;-83
2023/09/15 07:04:57;;;;;;;2.90;2.70;;;23.10;53.70;;;;;;5037334;28;20196;-83
2023/09/15 07:07:24;;;;;;;3.88;2.88;;;23.30;53.20;;;;;;5002692;28;20200;-83
2023/09/15 07:09:51;;;;;;;3.45;3.05;;;23.50;52.70;;;;;;5002335;28;20310;-83
2023/09/15 07:12:19;;;;;;;3.97;2.55;;;23.70;52.40;;;;;;5018421;28;20627;-83
2023/09/15 07:14:49;;;;;;;3.10;2.80;;;23.80;51.90;;;;;;5002134;28;20238;-83
2023/09/15 07:17:17;;;;;;;3.72;2.58;;;24.10;51.70;;;;;;5018822;28;20275;-83
2023/09/15 07:19:46;;;;;;;4.13;3.03;;;24.20;51.30;;;;;;5018117;28;20220;-83
2023/09/15 07:22:13;;;;;;;3.17;2.95;;;24.30;51.10;;;;;;5018141;28;20196;-83
2023/09/15 07:24:41;;;;;;;3.70;3.00;;;24.50;50.90;;;;;;5002225;28;20200;-83
2023/09/15 07:27:09;;;;;;;4.00;2.75;;;24.60;50.70;;;;;;5018129;28;20196;-83
2023/09/15 07:29:37;;;;;;;4.78;3.05;;;24.70;50.50;;;;;;5038777;28;20208;-83
2023/09/15 07:32:06;;;;;;;3.40;3.10;;;24.80;50.30;;;;;;5034266;28;20287;-83
2023/09/15 07:34:33;;;;;;;3.25;2.95;;;24.90;50.20;;;;;;5031753;28;20196;-83
2023/09/15 07:37:00;;;;;;;3.92;2.92;;;24.90;50.00;;;;;;5023067;28;20202;-84
2023/09/15 07:39:29;;;;;;;3.50;3.10;;;25.00;49.80;;;;;;5029522;28;20223;-84
2023/09/15 07:41:57;;;;;;;4.53;3.38;;;25.10;49.80;;;;;;5028806;28;20273;-84
2023/09/15 07:44:24;;;;;;;4.00;3.00;;;25.20;49.80;;;;;;5027942;28;20208;-84
2023/09/15 07:46:51;;;;;;;4.25;3.15;;;25.30;49.50;;;;;;5027208;28;20206;-84
2023/09/15 07:49:20;;;;;;;4.28;3.13;;;25.30;49.30;;;;;;5026401;28;20299;-84
2023/09/15 07:51:48;;;;;;;3.60;3.20;;;25.40;49.10;;;;;;5027279;28;20210;-84
2023/09/15 07:54:16;;;;;;;3.78;3.20;;;25.50;49.00;;;;;;5026130;28;20210;-84
2023/09/15 07:56:43;;;;;;;3.85;3.33;;;25.60;48.80;;;;;;5025878;28;20250;-84
2023/09/15 07:59:10;;;;;;;4.10;3.20;;;25.60;48.70;;;;;;5024892;28;20559;-84
2023/09/15 08:01:37;;;;;;;3.85;3.25;;;25.70;48.60;;;;;;5025149;28;20204;-84
2023/09/15 08:04:05;;;;;;;4.82;3.33;;;25.70;48.40;;;;;;5022389;28;20298;-84
2023/09/15 08:06:34;;;;;;;5.28;3.40;;;25.80;48.30;;;;;;5017446;28;20195;-84
2023/09/15 08:09:04;;;;;;;3.58;3.22;;;25.90;48.30;;;;;;5017297;28;20215;-84
2023/09/15 08:11:34;;;;;;;4.63;3.20;;;25.90;48.10;;;;;;5017658;28;20191;-84
2023/09/15 08:14:01;;;;;;;3.92;3.33;;;26.00;47.90;;;;;;5017862;28;20219;-84
2023/09/15 08:16:29;;;;;;;3.58;3.22;;;26.00;47.80;;;;;;5019038;28;20196;-84
2023/09/15 08:18:56;;;;;;;4.10;3.33;;;26.10;47.80;;;;;;5019977;28;20199;-84
2023/09/15 08:21:22;;;;;;;3.58;3.03;;;26.20;47.70;;;;;;5017676;28;20686;-84
2023/09/15 08:23:51;;;;;;;4.95;3.20;;;26.20;47.60;;;;;;5017618;28;20625;-84
2023/09/15 08:26:18;;;;;;;4.25;3.28;;;26.20;47.50;;;;;;5017235;28;20219;-84
2023/09/15 08:28:47;;;;;;;3.75;2.83;;;26.20;47.40;;;;;;5017311;28;20199;-84
2023/09/15 08:31:14;;;;;;;3.40;3.13;;;26.30;47.50;;;;;;5017305;28;20199;-84
2023/09/15 08:33:41;;;;;;;3.50;2.88;;;26.30;47.50;;;;;;5017062;28;20603;-84
2023/09/15 08:36:08;;;;;;;3.75;3.00;;;26.30;47.40;;;;;;5016906;28;20199;-84
2023/09/15 08:38:35;;;;;;;3.28;2.88;;;26.40;47.40;;;;;;5016806;28;20196;-83
2023/09/15 08:41:06;;;;;;;3.90;3.35;;;26.40;47.30;;;;;;5016434;28;20261;-83
2023/09/15 08:43:33;;;;;;;3.80;3.40;;;26.50;47.30;;;;;;5016717;28;20210;-84
2023/09/15 08:46:00;;;;;;;3.22;2.78;;;26.50;47.10;;;;;;5016589;28;20196;-84
2023/09/15 08:48:29;;;;;;;3.22;2.92;;;26.60;47.10;;;;;;5016810;28;20657;-84
2023/09/15 08:50:56;;;;;;;3.20;2.90;;;26.60;46.90;;;;;;5016473;28;20211;-84
2023/09/15 08:53:24;;;;;;;3.13;2.78;;;26.70;46.90;;;;;;5016559;28;20606;-84
2023/09/15 08:55:51;;;;;;;3.17;2.88;;;26.70;46.90;;;;;;5016574;28;20199;-84
2023/09/15 08:58:19;;;;;;;3.70;3.17;;;26.70;46.70;;;;;;5016262;28;20222;-84
2023/09/15 09:00:46;;;;;;;3.40;3.10;;;26.80;46.70;;;;;;5000566;28;20223;-84
2023/09/15 09:03:13;;;;;;;3.20;2.90;;;26.80;46.60;;;;;;5017307;28;20617;-84
2023/09/15 09:05:40;;;;;;;3.80;3.00;;;26.80;46.60;;;;;;5016272;28;20197;-84
2023/09/15 09:08:07;;;;;;;3.50;3.20;;;26.90;46.60;;;;;;5016104;28;20203;-84
2023/09/15 09:10:35;;;;;;;3.20;2.90;;;26.90;46.40;;;;;;5016128;28;20273;-84
2023/09/15 09:13:02;;;;;;;4.15;3.10;;;26.90;46.40;;;;;;5016534;28;20203;-83
2023/09/15 09:15:31;;;;;;;3.30;3.00;;;27.00;46.50;;;;;;5016307;28;20195;-83
2023/09/15 09:17:58;;;;;;;3.05;2.75;;;27.00;46.50;;;;;;5016351;28;20195;-83
2023/09/15 09:20:25;;;;;;;5.03;3.33;;;27.10;46.50;;;;;;5016363;28;20223;-83
2023/09/15 09:22:53;;;;;;;3.28;2.97;;;27.00;46.40;;;;;;5016704;28;20210;-83
2023/09/15 09:25:27;;;;;;;3.28;2.90;;;27.00;46.40;;;;;;5016353;28;20250;-84
2023/09/15 09:27:55;;;;;;;3.65;3.20;;;27.10;46.50;;;;;;5016281;28;20260;-84
2023/09/15 09:30:24;;;;;;;3.47;3.17;;;27.10;46.50;;;;;;5016314;28;20310;-84
2023/09/15 09:32:53;;;;;;;3.40;3.10;;;27.10;46.50;;;;;;5016351;28;20196;-84
2023/09/15 09:35:19;;;;;;;3.30;2.97;;;27.10;46.50;;;;;;5016445;28;20203;-84
2023/09/15 09:37:47;;;;;;;4.25;2.90;;;27.10;46.50;;;;;;5016458;28;20231;-84
2023/09/15 09:40:15;;;;;;;3.25;3.00;;;27.10;46.50;;;;;;5016690;28;20560;-84
2023/09/15 09:42:42;;;;;;;3.67;3.10;;;27.10;46.50;;;;;;5017468;28;20195;-84
2023/09/15 09:45:10;;;;;;;3.30;3.00;;;27.10;46.70;;;;;;5017816;28;20200;-84
2023/09/15 09:47:37;;;;;;;3.38;2.83;;;27.10;46.50;;;;;;5017359;28;20248;-84
2023/09/15 09:50:09;;;;;;;3.03;2.72;;;27.10;46.50;;;;;;5017242;28;20239;-84
2023/09/15 09:52:36;;;;;;;5.65;2.75;;;27.10;46.60;;;;;;5018229;28;20199;-84
2023/09/15 09:55:05;;;;;;;3.40;3.10;;;27.10;46.50;;;;;;5017292;28;20253;-84
2023/09/15 09:57:33;;;;;;;2.65;2.45;;;27.10;46.60;;;;;;5017475;28;20253;-84
2023/09/15 10:00:03;;;;;;;3.55;2.97;;;27.10;46.60;;;;;;5016585;28;20224;-84
2023/09/15 10:02:32;;;;;;;2.95;2.75;;;27.10;46.70;;;;;;5040080;28;20180;-84
2023/09/15 10:04:59;;;;;;;2.90;2.60;;;27.10;46.70;;;;;;5022690;28;20204;-84
2023/09/15 10:07:28;;;;;;;2.92;2.63;;;27.00;46.70;;;;;;5017381;28;20201;-84
2023/09/15 10:09:55;;;;;;;3.00;2.80;;;27.10;46.80;;;;;;5018813;28;20223;-83
2023/09/15 10:12:24;;;;;;;3.08;2.80;;;27.10;46.80;;;;;;5020215;28;20206;-83
2023/09/15 10:14:52;;;;;;;3.80;3.00;;;27.00;46.80;;;;;;5020021;28;20195;-84
2023/09/15 10:17:19;;;;;;;3.58;2.85;;;27.00;46.90;;;;;;5020086;28;20203;-84
2023/09/15 10:19:47;;;;;;;3.33;3.03;;;27.00;46.90;;;;;;5019699;28;20245;-84
2023/09/15 10:22:15;;;;;;;3.13;2.80;;;27.00;47.00;;;;;;5022433;28;20230;-84
2023/09/15 10:24:47;;;;;;;3.08;2.78;;;27.00;47.00;;;;;;5021126;28;20203;-84
2023/09/15 10:27:14;;;;;;;2.78;2.58;;;27.00;47.00;;;;;;5021540;28;20188;-84
2023/09/15 10:29:44;;;;;;;3.20;2.90;;;27.00;47.10;;;;;;5020566;28;20309;-84
2023/09/15 10:32:16;;;;;;;3.00;2.78;;;26.90;47.20;;;;;;5019512;28;20282;-84
2023/09/15 10:34:44;;;;;;;3.05;2.72;;;27.00;47.30;;;;;;5019508;28;20219;-84
2023/09/15 10:37:12;;;;;;;3.13;2.70;;;27.00;47.30;;;;;;5019406;28;20203;-84
2023/09/15 10:39:40;;;;;;;3.08;2.40;;;26.90;47.30;;;;;;5019290;28;20588;-84
2023/09/15 10:42:10;;;;;;;2.75;2.55;;;26.90;47.40;;;;;;5019060;28;20214;-84
2023/09/15 10:44:37;;;;;;;3.10;2.80;;;26.80;47.40;;;;;;5019536;28;20529;-84
2023/09/15 10:47:15;;;;;;;3.08;2.78;;;26.80;47.50;;;;;;5019105;28;20233;-84
2023/09/15 10:49:49;;;;;;;2.78;2.45;;;26.80;47.60;;;;;;5019720;28;20229;-84
2023/09/15 10:52:15;;;;;;;2.55;2.35;;;26.80;47.70;;;;;;5019053;28;20191;-84
2023/09/15 10:54:43;;;;;;;2.90;2.70;;;26.80;47.80;;;;;;5018929;28;20299;-84
2023/09/15 10:57:11;;;;;;;3.17;2.67;;;26.80;47.90;;;;;;5018698;28;20200;-84
2023/09/15 10:59:39;;;;;;;2.90;2.63;;;26.70;47.90;;;;;;5018560;28;20597;-84
2023/09/15 11:02:06;;;;;;;2.70;2.50;;;26.70;48.00;;;;;;5019898;28;20389;-85
2023/09/15 11:04:33;;;;;;;3.13;2.38;;;26.70;48.10;;;;;;5018725;28;20213;-84
2023/09/15 11:07:02;;;;;;;3.42;2.72;;;26.60;48.20;;;;;;5018648;28;20195;-84
2023/09/15 11:09:29;;;;;;;2.70;2.50;;;26.60;48.30;;;;;;5019364;28;20226;-84
2023/09/15 11:11:57;;;;;;;2.75;2.47;;;26.60;48.40;;;;;;5020827;28;20209;-84
2023/09/15 11:14:26;;;;;;;2.83;2.53;;;26.60;48.60;;;;;;5022885;28;20229;-84
2023/09/15 11:16:53;;;;;;;3.17;2.72;;;26.40;48.80;;;;;;5019184;28;20204;-84
2023/09/15 11:19:23;;;;;;;2.53;2.33;;;26.40;49.60;;;;;;5018160;28;20310;-84
2023/09/15 11:21:50;;;;;;;2.90;2.50;;;26.40;49.10;;;;;;5000889;28;20215;-84
2023/09/15 11:24:18;;;;;;;3.67;2.78;;;26.30;49.20;;;;;;5018140;28;20253;-84
2023/09/15 11:26:47;;;;;;;2.88;2.33;;;26.30;49.40;;;;;;5018743;28;20215;-84
2023/09/15 11:29:14;;;;;;;2.75;2.55;;;26.20;49.40;;;;;;5005294;28;20537;-84
2023/09/15 11:31:43;;;;;;;2.70;2.50;;;26.30;49.50;;;;;;5018643;28;20206;-84
2023/09/15 11:34:10;;;;;;;2.70;2.50;;;26.30;49.40;;;;;;5018076;28;20246;-84
2023/09/15 11:36:38;;;;;;;3.30;3.00;;;26.30;49.50;;;;;;5018308;28;20195;-84
2023/09/15 11:39:10;;;;;;;2.67;2.47;;;26.30;49.60;;;;;;5035578;28;20269;-84
2023/09/15 11:41:38;;;;;;;2.90;2.70;;;26.30;49.60;;;;;;5018085;28;20698;-84
2023/09/15 11:44:08;;;;;;;2.83;2.63;;;26.30;49.60;;;;;;5018888;28;20191;-84
2023/09/15 11:46:36;;;;;;;2.80;2.38;;;26.30;49.60;;;;;;5019110;28;20215;-84
2023/09/15 11:49:04;;;;;;;2.88;2.67;;;26.30;50.20;;;;;;5019254;28;20273;-84
2023/09/15 11:51:31;;;;;;;2.42;2.22;;;26.40;49.70;;;;;;5018814;28;20215;-84
2023/09/15 11:53:59;;;;;;;2.60;2.40;;;26.30;49.60;;;;;;5018133;28;20562;-84
2023/09/15 11:56:26;;;;;;;2.72;2.53;;;26.40;49.70;;;;;;5017822;28;20568;-84
2023/09/15 11:58:54;;;;;;;2.70;2.47;;;26.40;49.70;;;;;;5017701;28;20195;-84
2023/09/15 12:01:21;;;;;;;2.70;2.50;;;26.40;49.70;;;;;;5017259;28;20215;-84
2023/09/15 12:03:49;;;;;;;2.58;2.38;;;26.40;49.70;;;;;;5017797;28;20318;-84
2023/09/15 12:06:18;;;;;;;2.88;2.65;;;26.50;49.80;;;;;;5017551;28;20199;-84
2023/09/15 12:08:47;;;;;;;2.50;2.30;;;26.40;49.90;;;;;;5017321;28;20230;-84
2023/09/15 12:11:15;;;;;;;2.65;2.40;;;26.40;49.80;;;;;;5017466;28;20195;-84
2023/09/15 12:13:42;;;;;;;2.72;2.53;;;26.40;49.80;;;;;;5017011;28;20195;-84
2023/09/15 12:16:16;;;;;;;2.67;2.47;;;26.40;49.90;;;;;;5017589;28;20191;-84
2023/09/15 12:18:45;;;;;;;2.78;2.58;;;26.50;50.00;;;;;;5017312;28;20209;-84
2023/09/15 12:21:13;;;;;;;2.53;2.33;;;26.40;50.00;;;;;;5017494;28;20286;-84
2023/09/15 12:23:41;;;;;;;2.40;2.20;;;26.50;50.10;;;;;;5001241;28;20674;-84
2023/09/15 12:26:08;;;;;;;2.30;2.20;;;26.40;50.00;;;;;;5017167;28;20199;-84
2023/09/15 12:28:36;;;;;;;2.60;2.30;;;26.40;50.00;;;;;;5017177;28;20207;-84
2023/09/15 12:31:02;;;;;;;2.28;2.10;;;26.40;50.10;;;;;;5017229;28;20251;-84
2023/09/15 12:33:30;;;;;;;2.50;2.30;;;26.50;50.20;;;;;;5017562;28;20196;-84
2023/09/15 12:35:57;;;;;;;2.38;2.17;;;26.40;50.10;;;;;;5017461;28;20199;-84
2023/09/15 12:38:24;;;;;;;2.55;2.35;;;26.40;50.20;;;;;;5000795;28;20238;-84
2023/09/15 12:40:53;;;;;;;2.53;2.33;;;26.50;50.30;;;;;;5016934;28;20219;-83
2023/09/15 12:43:20;;;;;;;2.65;2.45;;;26.40;50.30;;;;;;5017264;28;20191;-83
2023/09/15 12:45:47;;;;;;;2.40;2.10;;;26.40;51.00;;;;;;5016892;28;20206;-83
2023/09/15 12:48:14;;;;;;;2.60;2.40;;;26.40;50.50;;;;;;5017204;28;20667;-83
2023/09/15 12:50:41;;;;;;;2.55;2.35;;;26.40;50.50;;;;;;5017461;28;20220;-83
2023/09/15 12:53:08;;;;;;;2.25;2.10;;;26.40;50.60;;;;;;5017076;28;20195;-83